• Join FlightAware (Why Join?)
  • Login
  • US Flag 
04:57PM EDT


 

Airport Tracker/Info


-or-


 

Live Flight TrackerFlight Track Log ✈ UAE787 ✈ 03-May-2013 ✈ OMDB / DXB - DGAA / ACC

Flight Track Log - Related Links

Times and Time Zones

All times are in EDT time to prevent confusion due to time zone crossing. See the UAE787 flight status page for this flight to view local times or setup timezone preferences in your user account.

Time Position Orientation Groundspeed Altitude Reporting Facility
EDT Latitude Longitude Course Direction KTS MPH feet Rate Location/Type
11:53PM 25.2680 55.3450 302° West 193 222 700  Level FlightAware
11:53PM 25.2850 55.3130 300° West 202 232 2,000 1,980 Climbing FlightAware
11:54PM 25.2900 55.3040 302° West 214 246 2,200 1,200 Climbing FlightAware
11:54PM 25.2990 55.2790 292° West 241 277 2,700 1,560 Climbing FlightAware
11:54PM 25.2960 55.2500 263° West 256 295 3,400 2,160 Climbing FlightAware
11:57PM 25.2504 54.9813 259° West  Level Estimated
11:58PM 25.2296 54.8601 259° West  Level Estimated
11:59PM 25.2087 54.7389 259° West  Level Estimated
11:59PM 25.2880 54.7460 259° West 379 436 13,800  Level FlightAware
12:00AM 25.3020 54.6770 283° West 386 444 14,900 780 Climbing FlightAware
12:00AM 25.3120 54.6100 279° West 386 444 14,900  Level FlightAware
12:01AM 25.3230 54.5440 280° West 386 444 14,900 1,860 Level FlightAware
12:04AM 25.2703 54.2453 259° West  Level Estimated
12:05AM 25.2487 54.1242 259° West  Level Estimated
12:06AM 25.2271 54.0033 259° West  Level Estimated
12:07AM 25.2054 53.8823 259° West  Level Estimated
12:08AM 25.1835 53.7614 259° West  Level Estimated
12:09AM 25.1616 53.6406 259° West  Level Estimated
12:09AM 25.5960 53.4760 259° West 422 486 32,000  Level FlightAware
12:10AM 25.6110 53.4060 283° West 422 486 32,000  Level FlightAware
12:11AM 25.6260 53.3340 283° West 422 486 32,000  Level FlightAware
12:11AM 25.6410 53.2630 283° West 422 486 32,000  Level FlightAware
12:12AM 25.6800 53.1980 304° West 447 514 32,000  Level FlightAware
12:12AM 25.7380 53.1120 307° West 447 514 32,000  Level FlightAware
12:13AM 25.7710 53.0330 295° West 421 484 32,000  Level FlightAware
12:14AM 25.7860 52.9360 280° West 419 482 32,000  Level FlightAware
12:14AM 25.7970 52.8530 278° West 419 482 32,000  Level FlightAware
12:15AM 25.8110 52.7550 279° West 420 483 32,000  Level FlightAware
12:16AM 25.8230 52.6700 279° West 420 483 32,000  Level FlightAware
12:17AM 25.8370 52.5740 279° West 421 484 32,000  Level FlightAware
12:17AM 25.8500 52.4880 280° West 423 487 32,000  Level FlightAware
12:18AM 25.8790 52.4060 291° West 438 504 32,000  Level FlightAware
12:19AM 25.9230 52.3160 299° West 444 511 32,000  Level FlightAware
12:19AM 25.9630 52.2360 299° West 444 511 32,000  Level FlightAware
12:20AM 26.0060 52.1460 298° West 444 511 32,000  Level FlightAware
12:21AM 26.0450 52.0660 298° West 445 512 32,000  Level FlightAware
12:21AM 26.0840 51.9840 298° West 445 512 32,000  Level FlightAware
12:22AM 26.1250 51.8980 298° West 446 513 32,000  Level FlightAware
12:23AM 26.1650 51.8130 298° West 446 513 32,000  Level FlightAware
12:24AM 26.2060 51.7250 297° West 444 511 32,000  Level FlightAware
12:24AM 26.2440 51.6410 297° West 443 510 32,000  Level FlightAware
12:25AM 26.2860 51.5470 297° West 441 507 32,000  Level FlightAware
12:26AM 26.3230 51.4650 297° West 439 505 32,000  Level FlightAware
12:26AM 26.3590 51.3850 297° West 441 507 32,000  Level FlightAware
12:27AM 26.3970 51.2910 294° West 438 504 32,000  Level FlightAware
12:28AM 26.4290 51.2120 294° West 438 504 32,000  Level FlightAware
12:28AM 26.4630 51.1260 294° West 438 504 32,000  Level FlightAware
12:29AM 26.5000 51.0350 294° West 439 505 32,000  Level FlightAware
12:30AM 26.5330 50.9530 294° West 435 501 32,000  Level FlightAware
12:31AM 26.5680 50.8570 292° West 429 494 32,000  Level FlightAware
12:31AM 26.5960 50.7750 291° West 427 491 32,000  Level FlightAware
12:32AM 26.6240 50.6930 291° West 426 490 32,000  Level FlightAware
12:33AM 26.6550 50.6010 291° West 424 488 32,000  Level FlightAware
12:33AM 26.6780 50.5270 289° West 424 488 32,000  Level FlightAware
12:34AM 26.7000 50.4570 289° West 424 488 32,000  Level FlightAware
12:35AM 26.7410 50.3460 292° West 425 489 32,000  Level FlightAware
12:35AM 26.7570 50.2560 281° West 412 474 32,000  Level FlightAware
12:36AM 26.7540 50.1400 268° West 398 458 32,000  Level FlightAware
12:37AM 26.7520 50.0640 268° West 398 458 32,000  Level FlightAware
12:38AM 26.7490 49.9790 268° West 398 458 32,000  Level FlightAware
12:38AM 26.7460 49.8760 268° West 397 457 32,000  Level FlightAware
12:39AM 26.7440 49.7760 269° West 397 457 32,000  Level FlightAware
12:40AM 26.7410 49.6860 268° West 397 457 32,000  Level FlightAware
12:41AM 26.7400 49.6160 269° West 397 457 32,000  Level FlightAware
12:41AM 26.7390 49.5460 269° West 397 457 32,000  Level FlightAware
12:42AM 26.7030 49.5020 228° Southwest 32,000  Level FlightAware
12:42AM 26.6970 49.4760 256° West 387 445 32,000  Level FlightAware
12:43AM 26.6800 49.3940 257° West 387 445 32,000  Level FlightAware
12:43AM 26.6570 49.3000 255° West 388 447 32,000  Level FlightAware
12:44AM 26.6410 49.2340 255° West 388 447 32,000  Level FlightAware
12:45AM 26.6250 49.1680 255° West 388 447 32,000  Level FlightAware
12:45AM 26.6100 49.1020 256° West 388 447 32,000  Level FlightAware
12:46AM 26.5940 49.0370 255° West 388 447 32,000  Level FlightAware
12:47AM 26.5740 48.9540 255° West 388 447 32,000  Level FlightAware
12:48AM 26.5580 48.8880 255° West 388 447 32,000  Level FlightAware
12:48AM 26.5420 48.8220 255° West 388 447 32,000  Level FlightAware
12:49AM 26.5270 48.7560 256° West 388 447 32,000  Level FlightAware
12:50AM 26.5110 48.6910 255° West 388 447 32,000  Level FlightAware
12:50AM 26.4910 48.6080 255° West 388 447 32,000  Level FlightAware
12:51AM 26.4750 48.5420 255° West 388 447 32,000  Level FlightAware
12:52AM 26.4590 48.4760 255° West 388 447 32,000  Level FlightAware
12:52AM 26.4440 48.4110 256° West 388 447 32,000  Level FlightAware
12:55AM 26.3805 48.1549 255° West  Level Estimated
12:56AM 26.3506 48.0350 254° West  Level Estimated
12:57AM 26.3206 47.9151 254° West  Level Estimated
12:58AM 26.2904 47.7953 254° West  Level Estimated
12:59AM 26.2602 47.6755 254° West  Level Estimated
01:00AM 26.2299 47.5558 254° West  Level Estimated
01:01AM 26.1995 47.4362 254° West  Level Estimated
01:02AM 26.1690 47.3166 254° West  Level Estimated
01:03AM 26.1384 47.1971 254° West  Level Estimated
01:04AM 26.1077 47.0776 254° West  Level Estimated
01:05AM 26.0769 46.9583 254° West  Level Estimated
01:06AM 26.0460 46.8389 254° West  Level Estimated
01:07AM 26.0150 46.7197 254° West  Level Estimated
01:08AM 25.9839 46.6005 254° West  Level Estimated
01:09AM 25.9527 46.4814 254° West  Level Estimated
01:10AM 25.9214 46.3623 254° West  Level Estimated
01:11AM 25.8900 46.2433 254° West  Level Estimated
01:12AM 25.8585 46.1244 254° West  Level Estimated
01:13AM 25.8269 46.0055 254° West  Level Estimated
01:14AM 25.7952 45.8867 254° West  Level Estimated
01:15AM 25.7634 45.7679 253° West  Level Estimated
01:16AM 25.7316 45.6492 253° West  Level Estimated
01:17AM 25.6996 45.5306 253° West  Level Estimated
01:18AM 25.6675 45.4120 253° West  Level Estimated
01:19AM 25.6354 45.2935 253° West  Level Estimated
01:20AM 25.6031 45.1751 253° West  Level Estimated
01:21AM 25.5707 45.0567 253° West  Level Estimated
01:22AM 25.5383 44.9384 253° West  Level Estimated
01:23AM 25.5057 44.8202 253° West  Level Estimated
01:24AM 25.4731 44.7020 253° West  Level Estimated
01:25AM 25.4404 44.5839 253° West  Level Estimated
01:26AM 25.4075 44.4659 253° West  Level Estimated
01:27AM 25.3746 44.3479 253° West  Level Estimated
01:28AM 25.3416 44.2300 253° West  Level Estimated
01:29AM 25.3085 44.1121 253° West  Level Estimated
01:30AM 25.2753 43.9943 253° West  Level Estimated
01:31AM 25.2420 43.8766 253° West  Level Estimated
01:32AM 25.2086 43.7589 253° West  Level Estimated
01:33AM 25.1751 43.6413 253° West  Level Estimated
01:34AM 25.1415 43.5238 253° West  Level Estimated
01:35AM 25.1078 43.4063 252° West  Level Estimated
01:36AM 25.0741 43.2889 252° West  Level Estimated
01:37AM 25.0402 43.1716 252° West  Level Estimated
01:38AM 25.0063 43.0543 252° West  Level Estimated
01:39AM 24.9722 42.9371 252° West  Level Estimated
01:40AM 24.9381 42.8200 252° West  Level Estimated
01:41AM 24.9039 42.7029 252° West  Level Estimated
01:42AM 24.8696 42.5859 252° West  Level Estimated
01:43AM 24.8352 42.4689 252° West  Level Estimated
01:44AM 24.8007 42.3521 252° West  Level Estimated
01:45AM 24.7661 42.2352 252° West  Level Estimated
01:46AM 24.7314 42.1185 252° West  Level Estimated
01:47AM 24.6966 42.0018 252° West  Level Estimated
01:48AM 24.6618 41.8852 252° West  Level Estimated
01:49AM 24.6268 41.7686 252° West  Level Estimated
01:50AM 24.5918 41.6521 252° West  Level Estimated
01:51AM 24.5567 41.5357 252° West  Level Estimated
01:52AM 24.5214 41.4193 252° West  Level Estimated
01:53AM 24.4861 41.3030 252° West  Level Estimated
01:54AM 24.4507 41.1868 252° West  Level Estimated
01:55AM 24.4153 41.0706 251° West  Level Estimated
01:56AM 24.3797 40.9545 251° West  Level Estimated
01:57AM 24.3440 40.8385 251° West  Level Estimated
01:58AM 24.3083 40.7225 251° West  Level Estimated
01:59AM 24.2724 40.6066 251° West  Level Estimated
02:00AM 24.2365 40.4908 251° West  Level Estimated
02:01AM 24.2005 40.3750 251° West  Level Estimated
02:02AM 24.1644 40.2593 251° West  Level Estimated
02:03AM 24.1282 40.1437 251° West  Level Estimated
02:04AM 24.0919 40.0281 251° West  Level Estimated
02:05AM 24.0556 39.9126 251° West  Level Estimated
02:06AM 24.0191 39.7971 251° West  Level Estimated
02:07AM 23.9826 39.6818 251° West  Level Estimated
02:08AM 23.9460 39.5665 251° West  Level Estimated
02:09AM 23.9093 39.4512 251° West  Level Estimated
02:10AM 23.8725 39.3360 251° West  Level Estimated
02:11AM 23.8356 39.2209 251° West  Level Estimated
02:12AM 23.7987 39.1059 251° West  Level Estimated
02:13AM 23.7616 38.9909 251° West  Level Estimated
02:14AM 23.7245 38.8759 251° West  Level Estimated
02:15AM 23.6873 38.7611 251° West  Level Estimated
02:16AM 23.6500 38.6463 250° West  Level Estimated
02:17AM 23.6126 38.5316 250° West  Level Estimated
02:18AM 23.5751 38.4169 250° West  Level Estimated
02:19AM 23.5375 38.3023 250° West  Level Estimated
02:20AM 23.4999 38.1878 250° West  Level Estimated
02:21AM 23.4622 38.0733 250° West  Level Estimated
02:22AM 23.4244 37.9590 250° West  Level Estimated
02:23AM 23.3865 37.8446 250° West  Level Estimated
02:24AM 23.3485 37.7304 250° West  Level Estimated
02:25AM 23.3104 37.6161 250° West  Level Estimated
02:26AM 23.2723 37.5020 250° West  Level Estimated
02:27AM 23.2341 37.3880 250° West  Level Estimated
02:28AM 23.1958 37.2739 250° West  Level Estimated
02:29AM 23.1574 37.1600 250° West  Level Estimated
02:30AM 23.1189 37.0461 250° West  Level Estimated
02:31AM 23.0804 36.9323 250° West  Level Estimated
02:32AM 23.0417 36.8186 250° West  Level Estimated
02:33AM 23.0030 36.7049 250° West  Level Estimated
02:34AM 22.9643 36.5913 250° West  Level Estimated
02:35AM 22.9254 36.4777 250° West  Level Estimated
02:36AM 22.8864 36.3643 250° West  Level Estimated
02:37AM 22.8474 36.2509 250° West  Level Estimated
02:38AM 22.8083 36.1375 249° West  Level Estimated
02:39AM 22.7691 36.0242 249° West  Level Estimated
02:40AM 22.7298 35.9110 249° West  Level Estimated
02:41AM 22.6905 35.7978 249° West  Level Estimated
02:42AM 22.6511 35.6847 249° West  Level Estimated
02:43AM 22.6115 35.5717 249° West  Level Estimated
02:44AM 22.5720 35.4588 249° West  Level Estimated
02:45AM 22.5323 35.3459 249° West  Level Estimated
02:46AM 22.4925 35.2330 249° West  Level Estimated
02:47AM 22.4527 35.1203 249° West  Level Estimated
02:48AM 22.4128 35.0075 249° West  Level Estimated
02:49AM 22.3728 34.8949 249° West  Level Estimated
02:50AM 22.3328 34.7823 249° West  Level Estimated
02:51AM 22.2926 34.6698 249° West  Level Estimated
02:52AM 22.2524 34.5574 249° West  Level Estimated
02:53AM 22.2121 34.4450 249° West  Level Estimated
02:54AM 22.1717 34.3327 249° West  Level Estimated
02:55AM 22.1313 34.2205 249° West  Level Estimated
02:56AM 22.0907 34.1083 249° West  Level Estimated
02:57AM 22.0501 33.9962 249° West  Level Estimated
02:58AM 22.0095 33.8841 249° West  Level Estimated
02:59AM 21.9687 33.7721 249° West  Level Estimated
03:00AM 21.9279 33.6602 249° West  Level Estimated
03:01AM 21.8870 33.5483 249° West  Level Estimated
03:02AM 21.8460 33.4365 248° West  Level Estimated
03:03AM 21.8049 33.3248 248° West  Level Estimated
03:04AM 21.7638 33.2131 248° West  Level Estimated
03:05AM 21.7226 33.1015 248° West  Level Estimated
03:06AM 21.6813 32.9900 248° West  Level Estimated
03:07AM 21.6399 32.8785 248° West  Level Estimated
03:08AM 21.5985 32.7671 248° West  Level Estimated
03:09AM 21.5570 32.6557 248° West  Level Estimated
03:10AM 21.5154 32.5444 248° West  Level Estimated
03:11AM 21.4738 32.4332 248° West  Level Estimated
03:12AM 21.4321 32.3220 248° West  Level Estimated
03:13AM 21.3903 32.2109 248° West  Level Estimated
03:14AM 21.3484 32.0999 248° West  Level Estimated
03:15AM 21.3064 31.9890 248° West  Level Estimated
03:16AM 21.2644 31.8780 248° West  Level Estimated
03:17AM 21.2223 31.7672 248° West  Level Estimated
03:18AM 21.1802 31.6564 248° West  Level Estimated
03:19AM 21.1379 31.5457 248° West  Level Estimated
03:20AM 21.0956 31.4351 248° West  Level Estimated
03:21AM 21.0532 31.3245 248° West  Level Estimated
03:22AM 21.0108 31.2139 248° West  Level Estimated
03:23AM 20.9683 31.1035 248° West  Level Estimated
03:24AM 20.9257 30.9931 248° West  Level Estimated
03:25AM 20.8830 30.8827 248° West  Level Estimated
03:26AM 20.8403 30.7725 247° West  Level Estimated
03:27AM 20.7975 30.6623 247° West  Level Estimated
03:28AM 20.7546 30.5521 247° West  Level Estimated
03:29AM 20.7117 30.4420 247° West  Level Estimated
03:30AM 20.6686 30.3320 247° West  Level Estimated
03:31AM 20.6256 30.2220 247° West  Level Estimated
03:32AM 20.5824 30.1121 247° West  Level Estimated
03:33AM 20.5392 30.0023 247° West  Level Estimated
03:34AM 20.4959 29.8925 247° West  Level Estimated
03:35AM 20.4526 29.7828 247° West  Level Estimated
03:36AM 20.4091 29.6732 247° West  Level Estimated
03:37AM 20.3656 29.5636 247° West  Level Estimated
03:38AM 20.3221 29.4540 247° West  Level Estimated
03:39AM 20.2784 29.3446 247° West  Level Estimated
03:40AM 20.2347 29.2352 247° West  Level Estimated
03:41AM 20.1909 29.1258 247° West  Level Estimated
03:42AM 20.1471 29.0166 247° West  Level Estimated
03:43AM 20.1032 28.9073 247° West  Level Estimated
03:44AM 20.0592 28.7982 247° West  Level Estimated
03:45AM 20.0152 28.6891 247° West  Level Estimated
03:46AM 19.9711 28.5800 247° West  Level Estimated
03:47AM 19.9269 28.4711 247° West  Level Estimated
03:48AM 19.8827 28.3621 247° West  Level Estimated
03:49AM 19.8384 28.2533 247° West  Level Estimated
03:50AM 19.7940 28.1445 247° West  Level Estimated
03:51AM 19.7495 28.0358 247° West  Level Estimated
03:52AM 19.7050 27.9271 247° West  Level Estimated
03:53AM 19.6605 27.8185 246° West  Level Estimated
03:54AM 19.6158 27.7099 246° West  Level Estimated
03:55AM 19.5711 27.6014 246° West  Level Estimated
03:56AM 19.5264 27.4930 246° West  Level Estimated
03:57AM 19.4816 27.3846 246° West  Level Estimated
03:58AM 19.4367 27.2763 246° West  Level Estimated
03:59AM 19.3917 27.1681 246° West  Level Estimated
04:00AM 19.3467 27.0599 246° West  Level Estimated
04:01AM 19.3016 26.9518 246° West  Level Estimated
04:02AM 19.2564 26.8437 246° West  Level Estimated
04:03AM 19.2112 26.7357 246° West  Level Estimated
04:04AM 19.1660 26.6277 246° West  Level Estimated
04:05AM 19.1206 26.5198 246° West  Level Estimated
04:06AM 19.0752 26.4120 246° West  Level Estimated
04:07AM 19.0298 26.3043 246° West  Level Estimated
04:08AM 18.9842 26.1965 246° West  Level Estimated
04:09AM 18.9386 26.0889 246° West  Level Estimated
04:10AM 18.8930 25.9813 246° West  Level Estimated
04:11AM 18.8473 25.8737 246° West  Level Estimated
04:12AM 18.8015 25.7663 246° West  Level Estimated
04:13AM 18.7557 25.6588 246° West  Level Estimated
04:14AM 18.7098 25.5515 246° West  Level Estimated
04:15AM 18.6638 25.4442 246° West  Level Estimated
04:16AM 18.6178 25.3369 246° West  Level Estimated
04:17AM 18.5717 25.2297 246° West  Level Estimated
04:18AM 18.5256 25.1226 246° West  Level Estimated
04:19AM 18.4794 25.0155 246° West  Level Estimated
04:20AM 18.4331 24.9085 246° West  Level Estimated
04:21AM 18.3868 24.8015 245° Southwest  Level Estimated
04:22AM 18.3404 24.6946 245° Southwest  Level Estimated
04:23AM 18.2940 24.5878 245° Southwest  Level Estimated
04:24AM 18.2475 24.4810 245° Southwest  Level Estimated
04:25AM 18.2009 24.3743 245° Southwest  Level Estimated
04:26AM 18.1543 24.2676 245° Southwest  Level Estimated
04:27AM 18.1076 24.1610 245° Southwest  Level Estimated
04:28AM 18.0609 24.0544 245° Southwest  Level Estimated
04:29AM 18.0141 23.9479 245° Southwest  Level Estimated
04:30AM 17.9672 23.8415 245° Southwest  Level Estimated
04:31AM 17.9203 23.7351 245° Southwest  Level Estimated
04:32AM 17.8734 23.6288 245° Southwest  Level Estimated
04:33AM 17.8263 23.5225 245° Southwest  Level Estimated
04:34AM 17.7792 23.4163 245° Southwest  Level Estimated
04:35AM 17.7321 23.3101 245° Southwest  Level Estimated
04:36AM 17.6849 23.2040 245° Southwest  Level Estimated
04:37AM 17.6377 23.0980 245° Southwest  Level Estimated
04:38AM 17.5903 22.9920 245° Southwest  Level Estimated
04:39AM 17.5430 22.8860 245° Southwest  Level Estimated
04:40AM 17.4956 22.7801 245° Southwest  Level Estimated
04:41AM 17.4481 22.6743 245° Southwest  Level Estimated
04:42AM 17.4006 22.5685 245° Southwest  Level Estimated
04:43AM 17.3530 22.4628 245° Southwest  Level Estimated
04:44AM 17.3053 22.3572 245° Southwest  Level Estimated
04:45AM 17.2576 22.2516 245° Southwest  Level Estimated
04:46AM 17.2099 22.1460 245° Southwest  Level Estimated
04:47AM 17.1620 22.0405 245° Southwest  Level Estimated
04:48AM 17.1142 21.9350 245° Southwest  Level Estimated
04:49AM 17.0662 21.8297 245° Southwest  Level Estimated
04:50AM 17.0183 21.7243 245° Southwest  Level Estimated
04:51AM 16.9702 21.6190 245° Southwest  Level Estimated
04:52AM 16.9222 21.5138 244° Southwest  Level Estimated
04:53AM 16.8740 21.4086 244° Southwest  Level Estimated
04:54AM 16.8258 21.3035 244° Southwest  Level Estimated
04:55AM 16.7776 21.1984 244° Southwest  Level Estimated
04:56AM 16.7293 21.0934 244° Southwest  Level Estimated
04:57AM 16.6810 20.9884 244° Southwest  Level Estimated
04:58AM 16.6325 20.8835 244° Southwest  Level Estimated
04:59AM 16.5841 20.7787 244° Southwest  Level Estimated
05:00AM 16.5356 20.6739 244° Southwest  Level Estimated
05:01AM 16.4870 20.5691 244° Southwest  Level Estimated
05:02AM 16.4384 20.4644 244° Southwest  Level Estimated
05:03AM 16.3897 20.3598 244° Southwest  Level Estimated
05:04AM 16.3410 20.2552 244° Southwest  Level Estimated
05:05AM 16.2923 20.1507 244° Southwest  Level Estimated
05:06AM 16.2434 20.0462 244° Southwest  Level Estimated
05:07AM 16.1946 19.9417 244° Southwest  Level Estimated
05:08AM 16.1457 19.8373 244° Southwest  Level Estimated
05:09AM 16.0967 19.7330 244° Southwest  Level Estimated
05:10AM 16.0477 19.6287 244° Southwest  Level Estimated
05:11AM 15.9986 19.5245 244° Southwest  Level Estimated
05:12AM 15.9495 19.4203 244° Southwest  Level Estimated
05:13AM 15.9003 19.3162 244° Southwest  Level Estimated
05:14AM 15.8511 19.2121 244° Southwest  Level Estimated
05:15AM 15.8018 19.1081 244° Southwest  Level Estimated
05:16AM 15.7525 19.0041 244° Southwest  Level Estimated
05:17AM 15.7031 18.9002 244° Southwest  Level Estimated
05:18AM 15.6537 18.7963 244° Southwest  Level Estimated
05:19AM 15.6042 18.6924 244° Southwest  Level Estimated
05:20AM 15.5547 18.5887 244° Southwest  Level Estimated
05:21AM 15.5051 18.4849 244° Southwest  Level Estimated
05:22AM 15.4555 18.3813 244° Southwest  Level Estimated
05:23AM 15.4059 18.2776 244° Southwest  Level Estimated
05:24AM 15.3562 18.1740 244° Southwest  Level Estimated
05:25AM 15.3064 18.0705 244° Southwest  Level Estimated
05:26AM 15.2566 17.9670 243° Southwest  Level Estimated
05:27AM 15.2067 17.8636 243° Southwest  Level Estimated
05:28AM 15.1568 17.7602 243° Southwest  Level Estimated
05:29AM 15.1069 17.6569 243° Southwest  Level Estimated
05:30AM 15.0569 17.5536 243° Southwest  Level Estimated
05:31AM 15.0069 17.4504 243° Southwest  Level Estimated
05:32AM 14.9568 17.3472 243° Southwest  Level Estimated
05:33AM 14.9066 17.2441 243° Southwest  Level Estimated
05:34AM 14.8565 17.1410 243° Southwest  Level Estimated
05:35AM 14.8062 17.0379 243° Southwest  Level Estimated
05:36AM 14.7560 16.9349 243° Southwest  Level Estimated
05:37AM 14.7056 16.8320 243° Southwest  Level Estimated
05:38AM 14.6553 16.7291 243° Southwest  Level Estimated
05:39AM 14.6049 16.6262 243° Southwest  Level Estimated
05:40AM 14.5544 16.5234 243° Southwest  Level Estimated
05:41AM 14.5039 16.4207 243° Southwest  Level Estimated
05:42AM 14.4534 16.3180 243° Southwest  Level Estimated
05:43AM 14.4028 16.2153 243° Southwest  Level Estimated
05:44AM 14.3522 16.1127 243° Southwest  Level Estimated
05:45AM 14.3015 16.0101 243° Southwest  Level Estimated
05:46AM 14.2508 15.9076 243° Southwest  Level Estimated
05:47AM 14.2000 15.8051 243° Southwest  Level Estimated
05:48AM 14.1492 15.7027 243° Southwest  Level Estimated
05:49AM 14.0983 15.6003 243° Southwest  Level Estimated
05:50AM 14.0475 15.4980 243° Southwest  Level Estimated
05:51AM 13.9965 15.3957 243° Southwest  Level Estimated
05:52AM 13.9455 15.2934 243° Southwest  Level Estimated
05:53AM 13.8945 15.1912 243° Southwest  Level Estimated
05:54AM 13.8434 15.0891 243° Southwest  Level Estimated
05:55AM 13.7923 14.9869 243° Southwest  Level Estimated
05:56AM 13.7412 14.8849 243° Southwest  Level Estimated
05:57AM 13.6900 14.7828 243° Southwest  Level Estimated
05:58AM 13.6388 14.6809 243° Southwest  Level Estimated
05:59AM 13.5875 14.5789 243° Southwest  Level Estimated
06:00AM 13.5362 14.4770 243° Southwest  Level Estimated
06:01AM 13.4848 14.3752 243° Southwest  Level Estimated
06:02AM 13.4334 14.2734 243° Southwest  Level Estimated
06:03AM 13.3820 14.1716 243° Southwest  Level Estimated
06:04AM 13.3305 14.0699 243° Southwest  Level Estimated
06:05AM 13.2790 13.9682 243° Southwest  Level Estimated
06:06AM 13.2274 13.8666 242° Southwest  Level Estimated
06:07AM 13.1758 13.7650 242° Southwest  Level Estimated
06:08AM 13.1242 13.6635 242° Southwest  Level Estimated
06:09AM 13.0725 13.5620 242° Southwest  Level Estimated
06:10AM 13.0208 13.4605 242° Southwest  Level Estimated
06:11AM 12.9690 13.3591 242° Southwest  Level Estimated
06:12AM 12.9172 13.2577 242° Southwest  Level Estimated
06:13AM 12.8654 13.1564 242° Southwest  Level Estimated
06:14AM 12.8135 13.0551 242° Southwest  Level Estimated
06:15AM 12.7616 12.9538 242° Southwest  Level Estimated
06:16AM 12.7096 12.8526 242° Southwest  Level Estimated
06:17AM 12.6576 12.7514 242° Southwest  Level Estimated
06:18AM 12.6056 12.6503 242° Southwest  Level Estimated
06:19AM 12.5535 12.5492 242° Southwest  Level Estimated
06:20AM 12.5014 12.4482 242° Southwest  Level Estimated
06:21AM 12.4493 12.3472 242° Southwest  Level Estimated
06:22AM 12.3971 12.2462 242° Southwest  Level Estimated
06:23AM 12.3449 12.1453 242° Southwest  Level Estimated
06:24AM 12.2926 12.0444 242° Southwest  Level Estimated
06:25AM 12.2403 11.9436 242° Southwest  Level Estimated
06:26AM 12.1880 11.8428 242° Southwest  Level Estimated
06:27AM 12.1356 11.7420 242° Southwest  Level Estimated
06:28AM 12.0832 11.6413 242° Southwest  Level Estimated
06:29AM 12.0308 11.5406 242° Southwest  Level Estimated
06:30AM 11.9783 11.4400 242° Southwest  Level Estimated
06:31AM 11.9258 11.3394 242° Southwest  Level Estimated
06:32AM 11.8733 11.2388 242° Southwest  Level Estimated
06:33AM 11.8207 11.1383 242° Southwest  Level Estimated
06:34AM 11.7681 11.0378 242° Southwest  Level Estimated
06:35AM 11.7154 10.9374 242° Southwest  Level Estimated
06:36AM 11.6627 10.8370 242° Southwest  Level Estimated
06:37AM 11.6100 10.7366 242° Southwest  Level Estimated
06:38AM 11.5573 10.6362 242° Southwest  Level Estimated
06:39AM 11.5045 10.5359 242° Southwest  Level Estimated
06:40AM 11.4516 10.4357 242° Southwest  Level Estimated
06:41AM 11.3988 10.3355 242° Southwest  Level Estimated
06:42AM 11.3459 10.2353 242° Southwest  Level Estimated
06:43AM 11.2929 10.1351 242° Southwest  Level Estimated
06:44AM 11.2400 10.0350 242° Southwest  Level Estimated
06:45AM 11.1870 9.9349 242° Southwest  Level Estimated
06:46AM 11.1340 9.8349 242° Southwest  Level Estimated
06:47AM 11.0809 9.7349 242° Southwest  Level Estimated
06:48AM 11.0278 9.6349 242° Southwest  Level Estimated
06:49AM 10.9747 9.5350 242° Southwest  Level Estimated
06:50AM 10.9215 9.4351 242° Southwest  Level Estimated
06:51AM 10.8683 9.3352 242° Southwest  Level Estimated
06:52AM 10.8151 9.2354 242° Southwest  Level Estimated
06:53AM 10.7619 9.1356 241° Southwest  Level Estimated
06:54AM 10.7086 9.0359 241° Southwest  Level Estimated
06:55AM 10.6552 8.9362 241° Southwest  Level Estimated
06:56AM 10.6019 8.8365 241° Southwest  Level Estimated
06:57AM 10.5485 8.7368 241° Southwest  Level Estimated
06:58AM 10.4951 8.6372 241° Southwest  Level Estimated
06:59AM 10.4417 8.5377 241° Southwest  Level Estimated
07:00AM 10.3882 8.4381 241° Southwest  Level Estimated
07:01AM 10.3347 8.3386 241° Southwest  Level Estimated
07:02AM 10.2811 8.2391 241° Southwest  Level Estimated
07:03AM 10.2276 8.1397 241° Southwest  Level Estimated
07:04AM 10.1740 8.0403 241° Southwest  Level Estimated
07:05AM 10.1203 7.9409 241° Southwest  Level Estimated
07:06AM 10.0667 7.8416 241° Southwest  Level Estimated
07:07AM 10.0130 7.7423 241° Southwest  Level Estimated
07:08AM 9.9593 7.6430 241° Southwest  Level Estimated
07:09AM 9.9055 7.5437 241° Southwest  Level Estimated
07:10AM 9.8518 7.4445 241° Southwest  Level Estimated
07:11AM 9.7980 7.3453 241° Southwest  Level Estimated
07:12AM 9.7441 7.2462 241° Southwest  Level Estimated
07:13AM 9.6903 7.1471 241° Southwest  Level Estimated
07:14AM 9.6364 7.0480 241° Southwest  Level Estimated
07:15AM 9.5825 6.9490 241° Southwest  Level Estimated
07:16AM 9.5285 6.8499 241° Southwest  Level Estimated
07:17AM 9.4746 6.7509 241° Southwest  Level Estimated
07:18AM 9.4206 6.6520 241° Southwest  Level Estimated
07:19AM 9.3665 6.5531 241° Southwest  Level Estimated
07:20AM 9.3125 6.4542 241° Southwest  Level Estimated
07:21AM 9.2584 6.3553 241° Southwest  Level Estimated
07:22AM 9.2043 6.2565 241° Southwest  Level Estimated
07:23AM 9.1501 6.1577 241° Southwest  Level Estimated
07:24AM 9.0960 6.0589 241° Southwest  Level Estimated
07:25AM 9.0418 5.9602 241° Southwest  Level Estimated
07:26AM 8.9876 5.8615 241° Southwest  Level Estimated
07:27AM 8.9333 5.7628 241° Southwest  Level Estimated
07:28AM 8.8791 5.6641 241° Southwest  Level Estimated
07:29AM 8.8248 5.5655 241° Southwest  Level Estimated
07:30AM 8.7704 5.4669 241° Southwest  Level Estimated
07:31AM 8.7161 5.3683 241° Southwest  Level Estimated
07:32AM 8.6617 5.2698 241° Southwest  Level Estimated
07:33AM 8.6073 5.1713 241° Southwest  Level Estimated
07:34AM 8.5529 5.0728 241° Southwest  Level Estimated
07:35AM 8.4985 4.9743 241° Southwest  Level Estimated
07:36AM 8.4440 4.8759 241° Southwest  Level Estimated
07:37AM 8.3895 4.7775 241° Southwest  Level Estimated
07:38AM 8.3350 4.6792 241° Southwest  Level Estimated
07:39AM 8.2804 4.5808 241° Southwest  Level Estimated
07:40AM 8.2259 4.4825 241° Southwest  Level Estimated
07:41AM 8.1713 4.3842 241° Southwest  Level Estimated
07:42AM 8.1166 4.2859 241° Southwest  Level Estimated
07:43AM 8.0620 4.1877 241° Southwest  Level Estimated
07:44AM 8.0073 4.0895 241° Southwest  Level Estimated
07:45AM 7.9527 3.9913 241° Southwest  Level Estimated
07:46AM 7.8980 3.8932 241° Southwest  Level Estimated
07:47AM 7.8432 3.7950 241° Southwest  Level Estimated
07:48AM 7.7885 3.6969 241° Southwest  Level Estimated
07:49AM 7.7337 3.5988 241° Southwest  Level Estimated
07:50AM 7.6789 3.5008 241° Southwest  Level Estimated
07:51AM 7.6241 3.4028 241° Southwest  Level Estimated
07:52AM 7.5692 3.3048 241° Southwest  Level Estimated
07:53AM 7.5144 3.2068 241° Southwest  Level Estimated
07:54AM 7.4595 3.1088 241° Southwest  Level Estimated
07:55AM 7.4046 3.0109 241° Southwest  Level Estimated
07:56AM 7.3496 2.9130 241° Southwest  Level Estimated
07:57AM 7.2947 2.8151 240° Southwest  Level Estimated
07:58AM 7.2397 2.7173 240° Southwest  Level Estimated
07:59AM 7.1847 2.6194 240° Southwest  Level Estimated
08:00AM 7.1297 2.5216 240° Southwest  Level Estimated
08:01AM 7.0747 2.4238 240° Southwest  Level Estimated
08:02AM 7.0196 2.3261 240° Southwest  Level Estimated
08:03AM 6.9645 2.2283 240° Southwest  Level Estimated
08:04AM 6.9094 2.1306 240° Southwest  Level Estimated
08:05AM 6.8531 2.0308 240° Southwest  Level Estimated
08:06AM 6.7967 1.9309 240° Southwest  Level Estimated
08:07AM 6.7404 1.8311 240° Southwest  Level Estimated
08:08AM 6.6840 1.7313 240° Southwest  Level Estimated
08:09AM 6.6275 1.6315 240° Southwest  Level Estimated
08:10AM 6.5711 1.5318 240° Southwest  Level Estimated
08:11AM 6.5146 1.4321 240° Southwest  Level Estimated
08:12AM 6.4582 1.3324 240° Southwest  Level Estimated
08:13AM 6.4017 1.2327 240° Southwest  Level Estimated
08:14AM 6.3451 1.1331 240° Southwest  Level Estimated
08:15AM 6.2886 1.0334 240° Southwest  Level Estimated
08:16AM 6.2320 0.9338 240° Southwest  Level Estimated
08:17AM 6.1755 0.8342 240° Southwest  Level Estimated
08:18AM 6.1189 0.7347 240° Southwest  Level Estimated
08:19AM 6.0623 0.6351 240° Southwest  Level Estimated